Como, CO (80432)

3:50 PM MDT on October 20, 2014 (GMT -0600)
Stanley Ridge @ Indian Mtn | Change Station
CLOSE
Current Station
Personal Weather Station
Location: Como, CO
Elevation: 9784 ft
Nearby Weather Stations

Elev 9784 ft 39.25 °N, 105.79 °W | Updated 12 minutes ago

Overcast
Overcast
55.4 °F
Feels Like 55.4 °F
N
6.0
Wind Variable Wind from SW
Gusts 8.0 mph

Today
High -- | Low -- °F
--% Chance of Precip.
Yesterday
High -- | Low -- °F
Precip. -- in
7:18 AM 6:17 PM
Waning Crescent, 9% visible
Pressure 29.97 in
Visibility 10.0 miles
Clouds Mostly Cloudy 8000 ft
Overcast 9500 ft
Dew Point 29 °F
Humidity 37%
Rainfall 0.00 in
Snow Depth 0 in , 177 in , 0 in
UV 1 out of 12
Pollen 2.90 out of 12
Air Quality Not available.
Flu Activity Sporadic
METAR KLXV 202053Z AUTO 20010KT 10SM BKN080 OVC095 12/M03 A3032 RMK AO2 SLP149 T01171033 56016

More Conditions Fewer Conditions

Pressure 29.97 in
Visibility 10.0 miles
Clouds Mostly Cloudy 8000 ft
Overcast 9500 ft
Dew Point 29 °F
Humidity 37%
Rainfall 0.00 in
Snow Depth 0 in , 177 in , 0 in
UV 1 out of 12
Pollen 2.90 out of 12
Air Quality Not available.
Flu Activity Sporadic
METAR KLXV 202053Z AUTO 20010KT 10SM BKN080 OVC095 12/M03 A3032 RMK AO2 SLP149 T01171033 56016

More Conditions Fewer Conditions

10-Day Weather Forecast

Almanac

Astronomy

Oct. 20, 2014 Rise Set
Actual Time 7:18 AM MDT 6:17 PM MDT
Civil Twilight 6:51 AM MDT 6:44 PM MDT
Nautical Twilight 6:20 AM MDT 7:15 PM MDT
Astronomical Twilight 5:49 AM MDT 7:46 PM MDT
Moon 4:10 AM MDT 4:40 PM MDT
Length of Visible Light 11h 53m
Length of Day
10h 58m
Waning Crescent, 9% of the Moon is Illuminated
Today
Waning Crescent
Oct 23
New
Oct 30
First Quarter
Nov 6
Full
Nov 14
Last Quarter

Today's Extremes

State Highs State Lows

Community

WunderPhotos

Upload Photos

1,763,527 photos uploaded!

WunderBlogs® & News

Nearby

Snow Depth

Station Depth Elevation
Hoosier Pass 0 in 11400 ft
Fremont Pass 177 in 11400 ft
Jackwhacker Gulch 0 in 10960 ft
Loveland Basin 1 in 11400 ft
Middle Fork Camp 0 in 9000 ft

Earthquake Activity

City Distance Mag. Time & Date
No recent earthquake activity has been reported nearby.
Minimum magnitude displayed is 2.5.

Coastal Water Temperatures

Place Temperature
No Stations Reporting

Nearby Weather Stations